Alm Crystal — V7MR6 — position and weather

sailwx.info

Track history (hours):
 
Tides and Currents Weather Stations Pressure Air Temp Water Temp Dewpoint Dewpoint Depression Visibility Wind Speed Wind Dir Waves Ship Positions

Alm Crystal

Last reported at 2017-Sep-15 00:56 UTC. Time now 2017-Sep-25 09:47 UTC.
Position N 24°58' E 119°60'.
Warning: this ship's position is 10 days out of date.

Length 294 m; draft 11 m.

Type: Cargo ship. MMSI: 538006400.

Date/timePositionNaut miles runAvg speedWind from/ knotsBaromVisibWave heightAir tempDewpointWater temp
2017-Sep-15 00:56N 24°58' E 119°60'15 6.8
2017-Sep-14 22:39N 24°48' E 119°47'16 6.3
2017-Sep-14 20:09N 24°38' E 119°33'1 6.4
2017-Sep-14 19:59N 24°38' E 119°32'7 6.5
2017-Sep-14 18:54N 24°33' E 119°26'3 6.3
2017-Sep-14 18:30N 24°31' E 119°24'3 7.0
2017-Sep-14 18:00N 24°29' E 119°22'4 7.0
2017-Sep-14 17:30N 24°27' E 119°18'4 7.3
2017-Sep-14 16:59N 24°25' E 119°15'3 6.9
2017-Sep-14 16:30N 24°22' E 119°13'4 7.2
2017-Sep-14 15:58N 24°19' E 119°10'23 6.3
2017-Sep-14 12:23N 24°05' E 118°51'3 8.5
2017-Sep-14 11:59N 24°02' E 118°48'5 8.7
2017-Sep-14 11:24N 23°59' E 118°44'19 9.1
2017-Sep-14 09:19N 23°48' E 118°27'5 9.5
2017-Sep-14 08:46N 23°45' E 118°22'1610.2
2017-Sep-14 07:10N 23°37' E 118°07'510.3
2017-Sep-14 06:42N 23°34' E 118°02'210.5
2017-Sep-14 06:30N 23°33' E 118°00'611.3
2017-Sep-14 05:56N 23°29' E 117°55'613.0
2017-Sep-14 05:31N 23°26' E 117°49'612.6
2017-Sep-14 05:00N 23°22' E 117°44'  
2017-Sep-11 23:31N 22°34' E 114°15'0 0.1
2017-Sep-11 23:03N 22°34' E 114°16'0 1.2
2017-Sep-11 22:57N 22°34' E 114°16'22012.5
2017-Sep-11 05:19N 23°43' E 118°02'1014.8
2017-Sep-11 04:40N 23°52' E 118°06'615.3
2017-Sep-11 04:17N 23°57' E 118°08'414.7
2017-Sep-11 04:00N 24°01' E 118°10'714.8
2017-Sep-11 03:30N 24°08' E 118°12'611.7
2017-Sep-11 03:00N 24°14' E 118°12'611.5
2017-Sep-11 02:30N 24°20' E 118°11'510.2
2017-Sep-11 02:00N 24°24' E 118°07'510.6
2017-Sep-11 01:31N 24°26' E 118°02'0 0.2
2017-Sep-11 00:58N 24°26' E 118°02'0 0.0
2017-Sep-11 00:28N 24°26' E 118°02'0 0.0
2017-Sep-10 23:58N 24°26' E 118°02'0 0.0
2017-Sep-10 23:28N 24°26' E 118°02'0 0.0
2017-Sep-10 22:58N 24°26' E 118°02'0 0.0
2017-Sep-10 22:28N 24°26' E 118°02'0 0.0
2017-Sep-10 22:00N 24°26' E 118°02'0 0.0
2017-Sep-10 21:28N 24°26' E 118°02'0 0.0
2017-Sep-10 20:58N 24°26' E 118°02'0 0.0
2017-Sep-10 20:28N 24°26' E 118°02'0 0.0
2017-Sep-10 19:58N 24°26' E 118°02'0 0.0
2017-Sep-10 19:28N 24°26' E 118°02'0 0.0
2017-Sep-10 18:58N 24°26' E 118°02'0 0.5
2017-Sep-10 18:31N 24°26' E 118°02'510.1
2017-Sep-10 18:00N 24°24' E 118°07'510.5
2017-Sep-10 17:30N 24°20' E 118°11'611.5
2017-Sep-10 17:01N 24°14' E 118°12'713.7
2017-Sep-10 16:30N 24°11' E 118°19'510.4
2017-Sep-10 15:59N 24°12' E 118°25'812.9
2017-Sep-10 15:23N 24°15' E 118°33'612.7
2017-Sep-10 14:54N 24°17' E 118°39'1312.7
2017-Sep-10 13:55N 24°21' E 118°52'2012.9
2017-Sep-10 12:24N 24°31' E 119°10'612.5
2017-Sep-10 11:55N 24°35' E 119°16'1611.9
2017-Sep-10 10:32N 24°44' E 119°31'311.7
2017-Sep-10 10:18N 24°45' E 119°33'411.7
2017-Sep-10 09:59N 24°47' E 119°37'612.1
2017-Sep-10 09:29N 24°51' E 119°42'612.2
2017-Sep-10 09:00N 24°55' E 119°47'1512.4
2017-Sep-10 07:48N 25°04' E 120°00'28414.6
2017-Sep-09 12:21N 29°10' E 122°38'3815.5
2017-Sep-09 09:53N 29°46' E 122°51'615.4
2017-Sep-09 09:30N 29°52' E 122°54'2814.3
2017-Sep-09 07:34N 30°19' E 122°58'315.7
2017-Sep-09 07:23N 30°21' E 122°55'10 0.5
2017-Sep-08 11:28N 30°28' E 122°46'612.4
2017-Sep-08 10:57N 30°31' E 122°53'915.9
2017-Sep-08 10:23N 30°40' E 122°56'  
Track history (hours):
 
Tides and Currents Weather Stations Pressure Air Temp Water Temp Dewpoint Dewpoint Depression Visibility Wind Speed Wind Dir Waves Ship Positions

Alm Crystal

Last reported at 2017-Sep-15 00:56 UTC. Time now 2017-Sep-25 09:47 UTC.
Position N 24°58' E 119°60'.
Warning: this ship's position is 10 days out of date.

Length 294 m; draft 11 m.

Type: Cargo ship. MMSI: 538006400.

Date/timePositionNaut miles runAvg speedWind from/ knotsBaromVisibWave heightAir tempDewpointWater temp
2017-Sep-15 00:56N 24°58' E 119°60'15 6.8
2017-Sep-14 22:39N 24°48' E 119°47'16 6.3
2017-Sep-14 20:09N 24°38' E 119°33'1 6.4
2017-Sep-14 19:59N 24°38' E 119°32'7 6.5
2017-Sep-14 18:54N 24°33' E 119°26'3 6.3
2017-Sep-14 18:30N 24°31' E 119°24'3 7.0
2017-Sep-14 18:00N 24°29' E 119°22'4 7.0
2017-Sep-14 17:30N 24°27' E 119°18'4 7.3
2017-Sep-14 16:59N 24°25' E 119°15'3 6.9
2017-Sep-14 16:30N 24°22' E 119°13'4 7.2
2017-Sep-14 15:58N 24°19' E 119°10'23 6.3
2017-Sep-14 12:23N 24°05' E 118°51'3 8.5
2017-Sep-14 11:59N 24°02' E 118°48'5 8.7
2017-Sep-14 11:24N 23°59' E 118°44'19 9.1
2017-Sep-14 09:19N 23°48' E 118°27'5 9.5
2017-Sep-14 08:46N 23°45' E 118°22'1610.2
2017-Sep-14 07:10N 23°37' E 118°07'510.3
2017-Sep-14 06:42N 23°34' E 118°02'210.5
2017-Sep-14 06:30N 23°33' E 118°00'611.3
2017-Sep-14 05:56N 23°29' E 117°55'613.0
2017-Sep-14 05:31N 23°26' E 117°49'612.6
2017-Sep-14 05:00N 23°22' E 117°44'  
2017-Sep-11 23:31N 22°34' E 114°15'0 0.1
2017-Sep-11 23:03N 22°34' E 114°16'0 1.2
2017-Sep-11 22:57N 22°34' E 114°16'22012.5
2017-Sep-11 05:19N 23°43' E 118°02'1014.8
2017-Sep-11 04:40N 23°52' E 118°06'615.3
2017-Sep-11 04:17N 23°57' E 118°08'414.7
2017-Sep-11 04:00N 24°01' E 118°10'714.8
2017-Sep-11 03:30N 24°08' E 118°12'611.7
2017-Sep-11 03:00N 24°14' E 118°12'611.5
2017-Sep-11 02:30N 24°20' E 118°11'510.2
2017-Sep-11 02:00N 24°24' E 118°07'510.6
2017-Sep-11 01:31N 24°26' E 118°02'0 0.2
2017-Sep-11 00:58N 24°26' E 118°02'0 0.0
2017-Sep-11 00:28N 24°26' E 118°02'0 0.0
2017-Sep-10 23:58N 24°26' E 118°02'0 0.0
2017-Sep-10 23:28N 24°26' E 118°02'0 0.0
2017-Sep-10 22:58N 24°26' E 118°02'0 0.0
2017-Sep-10 22:28N 24°26' E 118°02'0 0.0
2017-Sep-10 22:00N 24°26' E 118°02'0 0.0
2017-Sep-10 21:28N 24°26' E 118°02'0 0.0
2017-Sep-10 20:58N 24°26' E 118°02'0 0.0
2017-Sep-10 20:28N 24°26' E 118°02'0 0.0
2017-Sep-10 19:58N 24°26' E 118°02'0 0.0
2017-Sep-10 19:28N 24°26' E 118°02'0 0.0
2017-Sep-10 18:58N 24°26' E 118°02'0 0.5
2017-Sep-10 18:31N 24°26' E 118°02'510.1
2017-Sep-10 18:00N 24°24' E 118°07'510.5
2017-Sep-10 17:30N 24°20' E 118°11'611.5
2017-Sep-10 17:01N 24°14' E 118°12'713.7
2017-Sep-10 16:30N 24°11' E 118°19'510.4
2017-Sep-10 15:59N 24°12' E 118°25'812.9
2017-Sep-10 15:23N 24°15' E 118°33'612.7
2017-Sep-10 14:54N 24°17' E 118°39'1312.7
2017-Sep-10 13:55N 24°21' E 118°52'2012.9
2017-Sep-10 12:24N 24°31' E 119°10'612.5
2017-Sep-10 11:55N 24°35' E 119°16'1611.9
2017-Sep-10 10:32N 24°44' E 119°31'311.7
2017-Sep-10 10:18N 24°45' E 119°33'411.7
2017-Sep-10 09:59N 24°47' E 119°37'612.1
2017-Sep-10 09:29N 24°51' E 119°42'612.2
2017-Sep-10 09:00N 24°55' E 119°47'1512.4
2017-Sep-10 07:48N 25°04' E 120°00'28414.6
2017-Sep-09 12:21N 29°10' E 122°38'3815.5
2017-Sep-09 09:53N 29°46' E 122°51'615.4
2017-Sep-09 09:30N 29°52' E 122°54'2814.3
2017-Sep-09 07:34N 30°19' E 122°58'315.7
2017-Sep-09 07:23N 30°21' E 122°55'10 0.5
2017-Sep-08 11:28N 30°28' E 122°46'612.4
2017-Sep-08 10:57N 30°31' E 122°53'915.9
2017-Sep-08 10:23N 30°40' E 122°56'  

Dump ship's entire track history